SAS69X EKCH-EBBR
Flight info
| Callsign | SAS69X |
|---|---|
| Flight time | 1h 18m |
| Altitude | 38000 |
| Route | NEXEN T503 GIMRU DCT MICOS DCT KEGAB DCT ABAMI Z717 NEREL/N0384F240 T855 AGENI/N0354F180 T855 BATTY |
| Aircraft | A20N/M-SDE3FGIJ1RWXY/ALB1 |
Departure
| Time | 2026-05-06 17:32 |
|---|---|
| Airport | Copenhagen Kastrup Airport (EKCH) |
Arrival
| Time | 2026-05-06 18:51 |
|---|---|
| Airport | Brussels Airport (EBBR) |
| Time | Latitude | Longitude | Altitude | Speed | Heading |
|---|---|---|---|---|---|
| 2026-05-06 16:39 | 55.62697 | 12.64583 | 26 ft | 0 kts | 281° |
| 2026-05-06 17:17 | 55.62697 | 12.64584 | 26 ft | 0 kts | 281° |
| 2026-05-06 17:17 | 55.62694 | 12.64608 | 26 ft | 2 kts | 281° |
| 2026-05-06 17:17 | 55.62692 | 12.64634 | 26 ft | 2 kts | 281° |
| 2026-05-06 17:17 | 55.62689 | 12.64660 | 26 ft | 1 kts | 282° |
| 2026-05-06 17:18 | 55.62690 | 12.64680 | 26 ft | 1 kts | 225° |
| 2026-05-06 17:18 | 55.62702 | 12.64687 | 26 ft | 1 kts | 194° |
| 2026-05-06 17:18 | 55.62712 | 12.64704 | 26 ft | 2 kts | 256° |
| 2026-05-06 17:18 | 55.62710 | 12.64729 | 26 ft | 2 kts | 289° |
| 2026-05-06 17:19 | 55.62708 | 12.64742 | 26 ft | 0 kts | 280° |
| 2026-05-06 17:21 | 55.62709 | 12.64738 | 26 ft | 1 kts | 280° |
| 2026-05-06 17:21 | 55.62704 | 12.64698 | 26 ft | 4 kts | 229° |
| 2026-05-06 17:21 | 55.62662 | 12.64671 | 26 ft | 7 kts | 193° |
| 2026-05-06 17:21 | 55.62601 | 12.64650 | 26 ft | 10 kts | 184° |
| 2026-05-06 17:22 | 55.62534 | 12.64651 | 26 ft | 3 kts | 179° |
| 2026-05-06 17:22 | 55.62522 | 12.64651 | 26 ft | 0 kts | 178° |
| 2026-05-06 17:25 | 55.62506 | 12.64653 | 26 ft | 6 kts | 176° |
| 2026-05-06 17:25 | 55.62417 | 12.64672 | 26 ft | 14 kts | 176° |
| 2026-05-06 17:26 | 55.62325 | 12.64706 | 26 ft | 13 kts | 132° |
| 2026-05-06 17:26 | 55.62255 | 12.64793 | 26 ft | 13 kts | 178° |
| 2026-05-06 17:26 | 55.62221 | 12.64781 | 26 ft | 0 kts | 200° |
| 2026-05-06 17:27 | 55.62219 | 12.64779 | 26 ft | 0 kts | 205° |
| 2026-05-06 17:27 | 55.62203 | 12.64763 | 26 ft | 7 kts | 213° |
| 2026-05-06 17:27 | 55.62133 | 12.64679 | 26 ft | 15 kts | 213° |
| 2026-05-06 17:27 | 55.62040 | 12.64575 | 25 ft | 16 kts | 211° |
| 2026-05-06 17:28 | 55.61935 | 12.64501 | 26 ft | 16 kts | 180° |
| 2026-05-06 17:28 | 55.61820 | 12.64534 | 27 ft | 17 kts | 169° |
| 2026-05-06 17:28 | 55.61703 | 12.64575 | 27 ft | 16 kts | 175° |
| 2026-05-06 17:28 | 55.61599 | 12.64477 | 26 ft | 18 kts | 213° |
| 2026-05-06 17:29 | 55.61492 | 12.64357 | 27 ft | 18 kts | 211° |
| 2026-05-06 17:29 | 55.61389 | 12.64240 | 27 ft | 17 kts | 216° |
| 2026-05-06 17:29 | 55.61284 | 12.64117 | 27 ft | 18 kts | 212° |
| 2026-05-06 17:29 | 55.61175 | 12.63991 | 26 ft | 19 kts | 212° |
| 2026-05-06 17:30 | 55.61061 | 12.63859 | 25 ft | 20 kts | 213° |
| 2026-05-06 17:30 | 55.60943 | 12.63725 | 23 ft | 20 kts | 211° |
| 2026-05-06 17:30 | 55.60835 | 12.63596 | 22 ft | 13 kts | 205° |
| 2026-05-06 17:30 | 55.60762 | 12.63650 | 22 ft | 11 kts | 131° |
| 2026-05-06 17:31 | 55.60740 | 12.63696 | 22 ft | 0 kts | 131° |
| 2026-05-06 17:31 | 55.60727 | 12.63722 | 22 ft | 5 kts | 131° |
| 2026-05-06 17:31 | 55.60688 | 12.63804 | 22 ft | 11 kts | 125° |
| 2026-05-06 17:31 | 55.60712 | 12.63931 | 21 ft | 14 kts | 44° |
| 2026-05-06 17:32 | 55.60951 | 12.64302 | 24 ft | 83 kts | 41° |
| 2026-05-06 17:32 | 55.61556 | 12.65226 | 25 ft | 146 kts | 43° |
| 2026-05-06 17:32 | 55.62402 | 12.66513 | 394 ft | 165 kts | 44° |
| 2026-05-06 17:32 | 55.63274 | 12.67857 | 1033 ft | 169 kts | 45° |
| 2026-05-06 17:33 | 55.64153 | 12.69229 | 1645 ft | 175 kts | 45° |
| 2026-05-06 17:33 | 55.65110 | 12.70723 | 2158 ft | 193 kts | 44° |
| 2026-05-06 17:33 | 55.66173 | 12.72341 | 2677 ft | 213 kts | 43° |
| 2026-05-06 17:33 | 55.67329 | 12.74186 | 3174 ft | 234 kts | 53° |
| 2026-05-06 17:34 | 55.68023 | 12.76799 | 3806 ft | 248 kts | 82° |
| 2026-05-06 17:34 | 55.67850 | 12.79827 | 4671 ft | 256 kts | 110° |
| 2026-05-06 17:34 | 55.66838 | 12.82395 | 5525 ft | 265 kts | 138° |
| 2026-05-06 17:34 | 55.65166 | 12.83907 | 6395 ft | 276 kts | 165° |
| 2026-05-06 17:35 | 55.63260 | 12.84401 | 7308 ft | 281 kts | 174° |
| 2026-05-06 17:35 | 55.61325 | 12.84680 | 8210 ft | 285 kts | 175° |
| 2026-05-06 17:35 | 55.59360 | 12.84941 | 9109 ft | 288 kts | 175° |
| 2026-05-06 17:36 | 55.55421 | 12.84019 | 10635 ft | 299 kts | 214° |
| 2026-05-06 17:36 | 55.53796 | 12.81624 | 11130 ft | 314 kts | 225° |
| 2026-05-06 17:36 | 55.52182 | 12.78809 | 11508 ft | 331 kts | 226° |
| 2026-05-06 17:36 | 55.50509 | 12.75953 | 12210 ft | 339 kts | 224° |
| 2026-05-06 17:37 | 55.48780 | 12.73122 | 13082 ft | 342 kts | 224° |
| 2026-05-06 17:37 | 55.47035 | 12.70350 | 13896 ft | 344 kts | 223° |
| 2026-05-06 17:37 | 55.45224 | 12.67532 | 14711 ft | 347 kts | 223° |
| 2026-05-06 17:37 | 55.43423 | 12.64763 | 15483 ft | 349 kts | 223° |
| 2026-05-06 17:38 | 55.41568 | 12.61935 | 16223 ft | 352 kts | 223° |
| 2026-05-06 17:38 | 55.39691 | 12.59090 | 16968 ft | 354 kts | 223° |
| 2026-05-06 17:38 | 55.37802 | 12.56235 | 17692 ft | 356 kts | 223° |
| 2026-05-06 17:38 | 55.35905 | 12.53375 | 18390 ft | 359 kts | 223° |
| 2026-05-06 17:39 | 55.33987 | 12.50491 | 19075 ft | 361 kts | 223° |
| 2026-05-06 17:39 | 55.32079 | 12.47624 | 19747 ft | 363 kts | 223° |
| 2026-05-06 17:39 | 55.30139 | 12.44716 | 20393 ft | 365 kts | 223° |
| 2026-05-06 17:39 | 55.28210 | 12.41827 | 21001 ft | 368 kts | 223° |
| 2026-05-06 17:40 | 55.26256 | 12.38907 | 21593 ft | 371 kts | 223° |
| 2026-05-06 17:40 | 55.24292 | 12.35977 | 22167 ft | 374 kts | 223° |
| 2026-05-06 17:40 | 55.22298 | 12.33007 | 22735 ft | 377 kts | 221° |
| 2026-05-06 17:40 | 55.20270 | 12.29989 | 23290 ft | 380 kts | 222° |
| 2026-05-06 17:41 | 55.18209 | 12.26926 | 23818 ft | 384 kts | 221° |
| 2026-05-06 17:41 | 55.16156 | 12.23874 | 24361 ft | 387 kts | 221° |
| 2026-05-06 17:41 | 55.14076 | 12.20788 | 24890 ft | 390 kts | 221° |
| 2026-05-06 17:41 | 55.11990 | 12.17698 | 25388 ft | 393 kts | 221° |
| 2026-05-06 17:42 | 55.09932 | 12.14657 | 25871 ft | 396 kts | 221° |
| 2026-05-06 17:42 | 55.07829 | 12.11554 | 26358 ft | 398 kts | 220° |
| 2026-05-06 17:42 | 55.05693 | 12.08408 | 26845 ft | 400 kts | 220° |
| 2026-05-06 17:42 | 55.03594 | 12.05320 | 27280 ft | 403 kts | 220° |
| 2026-05-06 17:43 | 55.01428 | 12.02138 | 27739 ft | 405 kts | 220° |
| 2026-05-06 17:43 | 54.99280 | 11.98987 | 28179 ft | 407 kts | 220° |
| 2026-05-06 17:43 | 54.97086 | 11.95772 | 28592 ft | 409 kts | 220° |
| 2026-05-06 17:43 | 54.94918 | 11.92601 | 28999 ft | 411 kts | 220° |
| 2026-05-06 17:44 | 54.92731 | 11.89405 | 29541 ft | 410 kts | 219° |
| 2026-05-06 17:44 | 54.90543 | 11.86213 | 30112 ft | 408 kts | 219° |
| 2026-05-06 17:44 | 54.88392 | 11.83080 | 30639 ft | 407 kts | 219° |
| 2026-05-06 17:44 | 54.86224 | 11.79927 | 31142 ft | 406 kts | 219° |
| 2026-05-06 17:45 | 54.84094 | 11.76838 | 31619 ft | 404 kts | 219° |
| 2026-05-06 17:45 | 54.81914 | 11.73683 | 32085 ft | 403 kts | 219° |
| 2026-05-06 17:45 | 54.79773 | 11.70586 | 32526 ft | 402 kts | 219° |
| 2026-05-06 17:45 | 54.77635 | 11.67499 | 32954 ft | 400 kts | 219° |
| 2026-05-06 17:46 | 54.75499 | 11.64417 | 33373 ft | 399 kts | 220° |
| 2026-05-06 17:46 | 54.73412 | 11.61408 | 33705 ft | 398 kts | 220° |
| 2026-05-06 17:46 | 54.71277 | 11.58331 | 33883 ft | 398 kts | 220° |
| 2026-05-06 17:46 | 54.69129 | 11.55240 | 33883 ft | 398 kts | 220° |
| 2026-05-06 17:47 | 54.64893 | 11.49160 | 33894 ft | 398 kts | 220° |
| 2026-05-06 17:47 | 54.60596 | 11.43012 | 34079 ft | 401 kts | 220° |
| 2026-05-06 17:48 | 54.58437 | 11.39933 | 34417 ft | 399 kts | 220° |
| 2026-05-06 17:48 | 54.56317 | 11.36911 | 34755 ft | 396 kts | 220° |
| 2026-05-06 17:48 | 54.54190 | 11.33885 | 35008 ft | 395 kts | 219° |
| 2026-05-06 17:48 | 54.52076 | 11.30879 | 35239 ft | 394 kts | 219° |
| 2026-05-06 17:49 | 54.49942 | 11.27850 | 35444 ft | 395 kts | 219° |
| 2026-05-06 17:49 | 54.47847 | 11.24879 | 35644 ft | 394 kts | 219° |
| 2026-05-06 17:49 | 54.45721 | 11.21867 | 35838 ft | 394 kts | 219° |
| 2026-05-06 17:49 | 54.43568 | 11.18822 | 36042 ft | 394 kts | 219° |
| 2026-05-06 17:50 | 54.41456 | 11.15839 | 36198 ft | 395 kts | 220° |
| 2026-05-06 17:50 | 54.39289 | 11.12782 | 36355 ft | 396 kts | 220° |
| 2026-05-06 17:50 | 54.37174 | 11.09804 | 36500 ft | 397 kts | 220° |
| 2026-05-06 17:50 | 54.35048 | 11.06817 | 36637 ft | 398 kts | 220° |
| 2026-05-06 17:51 | 54.32893 | 11.03793 | 36773 ft | 399 kts | 220° |
| 2026-05-06 17:51 | 54.30706 | 11.00800 | 36887 ft | 400 kts | 218° |
| 2026-05-06 17:51 | 54.28431 | 10.98007 | 37028 ft | 401 kts | 215° |
| 2026-05-06 17:51 | 54.26156 | 10.95322 | 37170 ft | 402 kts | 216° |
| 2026-05-06 17:52 | 54.23850 | 10.92590 | 37306 ft | 402 kts | 216° |
| 2026-05-06 17:52 | 54.21507 | 10.89818 | 37444 ft | 403 kts | 215° |
| 2026-05-06 17:52 | 54.19198 | 10.87091 | 37561 ft | 404 kts | 215° |
| 2026-05-06 17:52 | 54.16862 | 10.84340 | 37679 ft | 405 kts | 216° |
| 2026-05-06 17:53 | 54.14535 | 10.81603 | 37791 ft | 406 kts | 216° |
| 2026-05-06 17:53 | 54.12230 | 10.78897 | 37868 ft | 408 kts | 216° |
| 2026-05-06 17:53 | 54.07526 | 10.73383 | 37870 ft | 409 kts | 216° |
| 2026-05-06 17:54 | 54.02804 | 10.67866 | 37875 ft | 409 kts | 216° |
| 2026-05-06 17:54 | 53.98101 | 10.62386 | 37876 ft | 410 kts | 216° |
| 2026-05-06 17:55 | 53.93342 | 10.56857 | 37877 ft | 410 kts | 216° |
| 2026-05-06 17:55 | 53.88621 | 10.51387 | 37877 ft | 410 kts | 216° |
| 2026-05-06 17:56 | 53.83899 | 10.45930 | 37874 ft | 409 kts | 216° |
| 2026-05-06 17:56 | 53.79191 | 10.40506 | 37873 ft | 409 kts | 216° |
| 2026-05-06 17:57 | 53.74459 | 10.35070 | 37872 ft | 409 kts | 216° |
| 2026-05-06 17:57 | 53.69740 | 10.29662 | 37869 ft | 409 kts | 214° |
| 2026-05-06 17:58 | 53.65038 | 10.24291 | 37870 ft | 409 kts | 215° |
| 2026-05-06 17:58 | 53.60335 | 10.18930 | 37865 ft | 410 kts | 215° |
| 2026-05-06 17:59 | 53.55544 | 10.13487 | 37863 ft | 411 kts | 215° |
| 2026-05-06 17:59 | 53.50795 | 10.08104 | 37858 ft | 410 kts | 215° |
| 2026-05-06 18:00 | 53.46070 | 10.02766 | 37859 ft | 409 kts | 214° |
| 2026-05-06 18:00 | 53.41362 | 9.97456 | 37856 ft | 409 kts | 214° |
| 2026-05-06 18:01 | 53.36617 | 9.92124 | 37853 ft | 409 kts | 214° |
| 2026-05-06 18:01 | 53.31903 | 9.86840 | 37850 ft | 410 kts | 214° |
| 2026-05-06 18:02 | 53.27193 | 9.81575 | 37843 ft | 410 kts | 214° |
| 2026-05-06 18:02 | 53.22456 | 9.76295 | 37848 ft | 410 kts | 214° |
| 2026-05-06 18:03 | 53.17667 | 9.70969 | 37852 ft | 410 kts | 214° |
| 2026-05-06 18:03 | 53.12931 | 9.65718 | 37858 ft | 410 kts | 214° |
| 2026-05-06 18:04 | 53.08204 | 9.60488 | 37860 ft | 410 kts | 214° |
| 2026-05-06 18:04 | 53.03421 | 9.55212 | 37857 ft | 410 kts | 214° |
| 2026-05-06 18:05 | 52.98660 | 9.49976 | 37857 ft | 410 kts | 214° |
| 2026-05-06 18:05 | 52.93910 | 9.44725 | 37855 ft | 410 kts | 216° |
| 2026-05-06 18:06 | 52.89436 | 9.38907 | 37855 ft | 410 kts | 222° |
| 2026-05-06 18:06 | 52.85176 | 9.32522 | 37859 ft | 410 kts | 222° |
| 2026-05-06 18:07 | 52.80935 | 9.26185 | 37853 ft | 410 kts | 222° |
| 2026-05-06 18:07 | 52.76712 | 9.19885 | 37847 ft | 412 kts | 222° |
| 2026-05-06 18:08 | 52.72443 | 9.13533 | 37835 ft | 413 kts | 222° |
| 2026-05-06 18:08 | 52.68179 | 9.07204 | 37830 ft | 413 kts | 222° |
| 2026-05-06 18:09 | 52.63908 | 9.00881 | 37830 ft | 413 kts | 222° |
| 2026-05-06 18:09 | 52.59627 | 8.94563 | 37830 ft | 412 kts | 222° |
| 2026-05-06 18:10 | 52.55350 | 8.88265 | 37829 ft | 412 kts | 222° |
| 2026-05-06 18:10 | 52.51067 | 8.81976 | 37828 ft | 412 kts | 222° |
| 2026-05-06 18:11 | 52.46800 | 8.75728 | 37830 ft | 412 kts | 222° |
| 2026-05-06 18:11 | 52.42498 | 8.69444 | 37830 ft | 413 kts | 222° |
| 2026-05-06 18:12 | 52.38184 | 8.63162 | 37831 ft | 414 kts | 222° |
| 2026-05-06 18:12 | 52.33886 | 8.56921 | 37832 ft | 414 kts | 222° |
| 2026-05-06 18:13 | 52.29561 | 8.50657 | 37831 ft | 414 kts | 222° |
| 2026-05-06 18:13 | 52.25215 | 8.44379 | 37829 ft | 414 kts | 222° |
| 2026-05-06 18:14 | 52.20898 | 8.38160 | 37832 ft | 414 kts | 222° |
| 2026-05-06 18:14 | 52.16567 | 8.31936 | 37836 ft | 414 kts | 221° |
| 2026-05-06 18:15 | 52.12235 | 8.25727 | 37839 ft | 414 kts | 221° |
| 2026-05-06 18:15 | 52.07910 | 8.19546 | 37841 ft | 414 kts | 221° |
| 2026-05-06 18:16 | 52.03543 | 8.13324 | 37842 ft | 415 kts | 221° |
| 2026-05-06 18:16 | 51.99220 | 8.07181 | 37841 ft | 415 kts | 221° |
| 2026-05-06 18:17 | 51.94876 | 8.01025 | 37845 ft | 416 kts | 221° |
| 2026-05-06 18:17 | 51.90510 | 7.94849 | 37843 ft | 416 kts | 221° |
| 2026-05-06 18:18 | 51.86170 | 7.88729 | 37844 ft | 415 kts | 221° |
| 2026-05-06 18:18 | 51.81820 | 7.82612 | 37843 ft | 416 kts | 221° |
| 2026-05-06 18:19 | 51.77413 | 7.76431 | 37843 ft | 416 kts | 221° |
| 2026-05-06 18:19 | 51.73420 | 7.70845 | 37845 ft | 417 kts | 221° |
| 2026-05-06 18:20 | 51.69056 | 7.64755 | 37845 ft | 417 kts | 221° |
| 2026-05-06 18:20 | 51.64659 | 7.58638 | 37845 ft | 418 kts | 221° |
| 2026-05-06 18:21 | 51.60240 | 7.52505 | 37847 ft | 418 kts | 221° |
| 2026-05-06 18:21 | 51.55846 | 7.46421 | 37848 ft | 418 kts | 221° |
| 2026-05-06 18:22 | 51.51431 | 7.40325 | 37848 ft | 417 kts | 221° |
| 2026-05-06 18:22 | 51.47030 | 7.34267 | 37850 ft | 418 kts | 220° |
| 2026-05-06 18:23 | 51.43153 | 7.28413 | 37851 ft | 419 kts | 226° |
| 2026-05-06 18:23 | 51.39209 | 7.21010 | 37851 ft | 419 kts | 232° |
| 2026-05-06 18:24 | 51.35715 | 7.13496 | 37850 ft | 419 kts | 233° |
| 2026-05-06 18:24 | 51.32207 | 7.05981 | 37855 ft | 419 kts | 233° |
| 2026-05-06 18:25 | 51.28693 | 6.98476 | 37862 ft | 419 kts | 233° |
| 2026-05-06 18:25 | 51.25195 | 6.91031 | 37870 ft | 419 kts | 233° |
| 2026-05-06 18:26 | 51.21696 | 6.83600 | 37873 ft | 419 kts | 233° |
| 2026-05-06 18:26 | 51.18183 | 6.76162 | 37871 ft | 418 kts | 232° |
| 2026-05-06 18:27 | 51.14726 | 6.68863 | 37872 ft | 419 kts | 232° |
| 2026-05-06 18:27 | 51.11211 | 6.61470 | 37560 ft | 416 kts | 232° |
| 2026-05-06 18:28 | 51.09432 | 6.57869 | 37212 ft | 413 kts | 230° |
| 2026-05-06 18:28 | 51.07539 | 6.54452 | 36817 ft | 410 kts | 227° |
| 2026-05-06 18:28 | 51.05555 | 6.51243 | 36441 ft | 408 kts | 225° |
| 2026-05-06 18:28 | 51.03529 | 6.48043 | 36013 ft | 407 kts | 225° |
| 2026-05-06 18:29 | 51.01542 | 6.44902 | 35543 ft | 407 kts | 225° |
| 2026-05-06 18:29 | 50.99532 | 6.41728 | 35028 ft | 409 kts | 225° |
| 2026-05-06 18:29 | 50.97521 | 6.38556 | 34517 ft | 410 kts | 225° |
| 2026-05-06 18:29 | 50.95480 | 6.35339 | 33929 ft | 408 kts | 225° |
| 2026-05-06 18:30 | 50.93483 | 6.32192 | 33050 ft | 410 kts | 224° |
| 2026-05-06 18:30 | 50.91482 | 6.29045 | 31818 ft | 414 kts | 223° |
| 2026-05-06 18:30 | 50.89600 | 6.26091 | 30495 ft | 419 kts | 223° |
| 2026-05-06 18:30 | 50.87508 | 6.22822 | 28859 ft | 423 kts | 223° |
| 2026-05-06 18:31 | 50.85405 | 6.19543 | 27268 ft | 424 kts | 224° |
| 2026-05-06 18:31 | 50.83366 | 6.16363 | 26162 ft | 414 kts | 224° |
| 2026-05-06 18:31 | 50.81351 | 6.13219 | 25113 ft | 404 kts | 225° |
| 2026-05-06 18:31 | 50.79373 | 6.10139 | 23989 ft | 398 kts | 225° |
| 2026-05-06 18:32 | 50.77428 | 6.07113 | 22907 ft | 391 kts | 225° |
| 2026-05-06 18:32 | 50.75515 | 6.04087 | 21980 ft | 391 kts | 227° |
| 2026-05-06 18:32 | 50.73701 | 6.00945 | 21433 ft | 385 kts | 230° |
| 2026-05-06 18:32 | 50.71977 | 5.97778 | 20968 ft | 379 kts | 230° |
| 2026-05-06 18:33 | 50.70257 | 5.94628 | 20465 ft | 376 kts | 230° |
| 2026-05-06 18:33 | 50.68559 | 5.91506 | 19940 ft | 372 kts | 232° |
| 2026-05-06 18:33 | 50.67225 | 5.88042 | 19379 ft | 369 kts | 249° |
| 2026-05-06 18:33 | 50.66558 | 5.84172 | 18896 ft | 365 kts | 260° |
| 2026-05-06 18:34 | 50.66185 | 5.80261 | 18410 ft | 362 kts | 262° |
| 2026-05-06 18:34 | 50.65866 | 5.76401 | 17905 ft | 360 kts | 263° |
| 2026-05-06 18:34 | 50.65546 | 5.72506 | 17370 ft | 358 kts | 263° |
| 2026-05-06 18:34 | 50.65218 | 5.68596 | 16865 ft | 356 kts | 263° |
| 2026-05-06 18:35 | 50.64886 | 5.64748 | 16326 ft | 354 kts | 263° |
| 2026-05-06 18:35 | 50.64550 | 5.60937 | 15783 ft | 352 kts | 263° |
| 2026-05-06 18:35 | 50.64209 | 5.57146 | 15259 ft | 350 kts | 263° |
| 2026-05-06 18:35 | 50.63860 | 5.53358 | 14743 ft | 348 kts | 264° |
| 2026-05-06 18:36 | 50.63748 | 5.49632 | 14229 ft | 345 kts | 274° |
| 2026-05-06 18:36 | 50.63930 | 5.45860 | 13730 ft | 343 kts | 277° |
| 2026-05-06 18:36 | 50.64150 | 5.42153 | 13237 ft | 341 kts | 277° |
| 2026-05-06 18:36 | 50.64355 | 5.38394 | 12754 ft | 338 kts | 276° |
| 2026-05-06 18:37 | 50.64525 | 5.34910 | 12302 ft | 336 kts | 275° |
| 2026-05-06 18:37 | 50.64686 | 5.31286 | 11838 ft | 334 kts | 275° |
| 2026-05-06 18:37 | 50.64839 | 5.27644 | 11357 ft | 332 kts | 275° |
| 2026-05-06 18:37 | 50.64982 | 5.24071 | 10912 ft | 330 kts | 275° |
| 2026-05-06 18:38 | 50.65123 | 5.20467 | 10428 ft | 328 kts | 275° |
| 2026-05-06 18:38 | 50.65260 | 5.16930 | 10086 ft | 321 kts | 275° |
| 2026-05-06 18:38 | 50.65390 | 5.13481 | 9899 ft | 311 kts | 275° |
| 2026-05-06 18:38 | 50.65512 | 5.10165 | 9721 ft | 300 kts | 275° |
| 2026-05-06 18:39 | 50.65632 | 5.06924 | 9540 ft | 291 kts | 275° |
| 2026-05-06 18:39 | 50.65748 | 5.03765 | 9274 ft | 284 kts | 275° |
| 2026-05-06 18:39 | 50.65860 | 5.00686 | 8903 ft | 282 kts | 275° |
| 2026-05-06 18:40 | 50.66080 | 4.94629 | 8470 ft | 268 kts | 276° |
| 2026-05-06 18:40 | 50.66147 | 4.91715 | 8239 ft | 262 kts | 272° |
| 2026-05-06 18:40 | 50.66025 | 4.88814 | 7899 ft | 263 kts | 266° |
| 2026-05-06 18:40 | 50.65813 | 4.85943 | 7744 ft | 267 kts | 266° |
| 2026-05-06 18:41 | 50.65586 | 4.83040 | 7565 ft | 267 kts | 265° |
| 2026-05-06 18:41 | 50.65352 | 4.80092 | 7428 ft | 267 kts | 266° |
| 2026-05-06 18:41 | 50.65126 | 4.77228 | 7265 ft | 266 kts | 266° |
| 2026-05-06 18:41 | 50.64896 | 4.74325 | 7002 ft | 265 kts | 266° |
| 2026-05-06 18:42 | 50.64669 | 4.71441 | 6712 ft | 264 kts | 266° |
| 2026-05-06 18:42 | 50.64442 | 4.68572 | 6434 ft | 264 kts | 266° |
| 2026-05-06 18:42 | 50.64217 | 4.65718 | 6057 ft | 264 kts | 266° |
| 2026-05-06 18:42 | 50.63990 | 4.62857 | 5720 ft | 262 kts | 266° |
| 2026-05-06 18:43 | 50.63764 | 4.60013 | 5404 ft | 260 kts | 266° |
| 2026-05-06 18:43 | 50.63540 | 4.57212 | 5101 ft | 260 kts | 266° |
| 2026-05-06 18:43 | 50.63313 | 4.54379 | 4794 ft | 260 kts | 266° |
| 2026-05-06 18:43 | 50.63088 | 4.51574 | 4529 ft | 259 kts | 266° |
| 2026-05-06 18:44 | 50.62860 | 4.48750 | 4282 ft | 256 kts | 266° |
| 2026-05-06 18:44 | 50.62637 | 4.45996 | 4068 ft | 250 kts | 267° |
| 2026-05-06 18:44 | 50.62707 | 4.43302 | 3779 ft | 239 kts | 295° |
| 2026-05-06 18:44 | 50.63683 | 4.41380 | 3540 ft | 223 kts | 335° |
| 2026-05-06 18:45 | 50.65149 | 4.40975 | 3307 ft | 212 kts | 13° |
| 2026-05-06 18:45 | 50.66549 | 4.41603 | 3099 ft | 207 kts | 14° |
| 2026-05-06 18:45 | 50.67933 | 4.41951 | 2996 ft | 197 kts | 6° |
| 2026-05-06 18:45 | 50.69265 | 4.42055 | 2980 ft | 182 kts | 2° |
| 2026-05-06 18:46 | 50.70489 | 4.42040 | 2984 ft | 171 kts | 0° |
| 2026-05-06 18:46 | 50.71679 | 4.42117 | 3062 ft | 172 kts | 11° |
| 2026-05-06 18:46 | 50.72823 | 4.42563 | 3024 ft | 171 kts | 17° |
| 2026-05-06 18:46 | 50.73974 | 4.43089 | 3009 ft | 171 kts | 18° |
| 2026-05-06 18:47 | 50.75116 | 4.43598 | 2957 ft | 172 kts | 16° |
| 2026-05-06 18:47 | 50.76273 | 4.44088 | 2724 ft | 171 kts | 16° |
| 2026-05-06 18:47 | 50.77380 | 4.44541 | 2488 ft | 162 kts | 16° |
| 2026-05-06 18:47 | 50.78468 | 4.44982 | 2275 ft | 161 kts | 15° |
| 2026-05-06 18:48 | 50.79542 | 4.45414 | 2083 ft | 159 kts | 17° |
| 2026-05-06 18:48 | 50.80621 | 4.45852 | 1869 ft | 158 kts | 16° |
| 2026-05-06 18:48 | 50.81642 | 4.46265 | 1636 ft | 144 kts | 17° |
| 2026-05-06 18:48 | 50.82562 | 4.46638 | 1425 ft | 129 kts | 17° |
| 2026-05-06 18:49 | 50.83406 | 4.46982 | 1261 ft | 125 kts | 17° |
| 2026-05-06 18:49 | 50.84256 | 4.47329 | 1104 ft | 125 kts | 17° |
| 2026-05-06 18:49 | 50.85100 | 4.47674 | 944 ft | 124 kts | 17° |
| 2026-05-06 18:49 | 50.85933 | 4.48013 | 781 ft | 124 kts | 16° |
| 2026-05-06 18:50 | 50.86769 | 4.48354 | 610 ft | 124 kts | 16° |
| 2026-05-06 18:50 | 50.87600 | 4.48694 | 444 ft | 123 kts | 16° |
| 2026-05-06 18:50 | 50.88426 | 4.49031 | 277 ft | 123 kts | 16° |
| 2026-05-06 18:50 | 50.89235 | 4.49356 | 173 ft | 113 kts | 20° |
| 2026-05-06 18:51 | 50.89843 | 4.49611 | 155 ft | 64 kts | 15° |
| 2026-05-06 18:51 | 50.90143 | 4.49713 | 146 ft | 26 kts | 0° |
| 2026-05-06 18:51 | 50.90291 | 4.49677 | 142 ft | 14 kts | 345° |
| 2026-05-06 18:51 | 50.90351 | 4.49648 | 140 ft | 7 kts | 342° |
| 2026-05-06 18:52 | 50.90409 | 4.49606 | 138 ft | 10 kts | 327° |
| 2026-05-06 18:52 | 50.90459 | 4.49515 | 137 ft | 12 kts | 270° |
| 2026-05-06 18:52 | 50.90428 | 4.49393 | 138 ft | 12 kts | 243° |
| 2026-05-06 18:52 | 50.90387 | 4.49268 | 138 ft | 13 kts | 244° |
| 2026-05-06 18:53 | 50.90349 | 4.49135 | 138 ft | 12 kts | 246° |
| 2026-05-06 18:53 | 50.90310 | 4.49001 | 139 ft | 13 kts | 245° |
| 2026-05-06 18:53 | 50.90269 | 4.48858 | 139 ft | 14 kts | 246° |
| 2026-05-06 18:53 | 50.90240 | 4.48754 | 138 ft | 6 kts | 259° |
| 2026-05-06 18:54 | 50.90259 | 4.48724 | 138 ft | 4 kts | 332° |
| 2026-05-06 18:54 | 50.90285 | 4.48704 | 137 ft | 3 kts | 335° |
| 2026-05-06 18:54 | 50.90299 | 4.48694 | 136 ft | 2 kts | 336° |
| 2026-05-06 18:54 | 50.90308 | 4.48688 | 136 ft | 0 kts | 335° |
| 2026-05-06 18:55 | 50.90308 | 4.48687 | 136 ft | 0 kts | 335° |